createdAt,value
2019-05-19T00:01:16.314Z,11.10
2019-05-19T00:03:45.173Z,11.00
2019-05-19T00:06:13.924Z,11.00
2019-05-19T00:08:42.764Z,11.00
2019-05-19T00:11:11.550Z,11.00
2019-05-19T00:13:40.291Z,11.00
2019-05-19T00:16:09.423Z,11.00
2019-05-19T00:18:38.252Z,11.00
2019-05-19T00:21:06.955Z,10.90
2019-05-19T00:23:35.699Z,10.80
2019-05-19T00:26:04.506Z,10.80
2019-05-19T00:28:33.254Z,10.80
2019-05-19T00:31:02.002Z,10.70
2019-05-19T00:33:30.782Z,10.70
2019-05-19T00:35:59.534Z,10.60
2019-05-19T00:38:28.284Z,10.60
2019-05-19T00:40:57.075Z,10.60
2019-05-19T00:43:27.072Z,10.50
2019-05-19T00:45:55.820Z,10.40
2019-05-19T00:48:24.666Z,10.40
2019-05-19T00:50:53.410Z,10.40
2019-05-19T00:53:22.254Z,10.40
2019-05-19T00:55:52.370Z,10.40
2019-05-19T00:58:21.714Z,10.30
2019-05-19T01:00:50.470Z,10.30
2019-05-19T01:03:19.274Z,10.30
2019-05-19T01:05:48.022Z,10.30
2019-05-19T01:08:16.758Z,10.30
2019-05-19T01:10:45.871Z,10.20
2019-05-19T01:13:14.614Z,10.20
2019-05-19T01:15:43.425Z,10.10
2019-05-19T01:18:12.330Z,10.10
2019-05-19T01:20:41.070Z,10.10
2019-05-19T01:23:09.815Z,10.10
2019-05-19T01:25:38.671Z,10.00
2019-05-19T01:28:07.414Z,10.00
2019-05-19T01:30:36.462Z,10.00
2019-05-19T01:33:05.246Z,10.00
2019-05-19T01:35:34.447Z,9.90
2019-05-19T01:38:03.239Z,9.90
2019-05-19T01:40:32.003Z,9.80
2019-05-19T01:43:00.798Z,9.80
2019-05-19T01:45:29.766Z,9.70
2019-05-19T01:47:58.590Z,9.70
2019-05-19T01:50:27.326Z,9.70
2019-05-19T01:52:56.346Z,9.70
2019-05-19T01:55:25.476Z,9.70
2019-05-19T01:57:54.217Z,9.70
2019-05-19T02:00:23.279Z,9.70
2019-05-19T02:02:52.082Z,9.70
2019-05-19T02:05:21.356Z,9.70
2019-05-19T02:07:50.107Z,9.80
2019-05-19T02:10:19.294Z,9.70
2019-05-19T02:12:48.026Z,9.70
2019-05-19T02:15:17.079Z,9.70
2019-05-19T02:17:45.870Z,9.80
2019-05-19T02:20:31.658Z,9.80
2019-05-19T02:22:47.834Z,9.80
2019-05-19T02:25:16.680Z,9.90
2019-05-19T02:27:45.420Z,9.90
2019-05-19T02:30:15.376Z,10.00
2019-05-19T02:32:44.158Z,9.90
2019-05-19T02:35:13.099Z,10.00
2019-05-19T02:37:42.160Z,10.00
2019-05-19T02:40:11.227Z,10.00
2019-05-19T02:42:41.666Z,10.00
2019-05-19T02:45:12.863Z,10.00
2019-05-19T02:47:43.834Z,9.90
2019-05-19T02:50:13.081Z,10.00
2019-05-19T02:52:45.114Z,10.00
2019-05-19T02:55:15.291Z,9.90
2019-05-19T02:57:46.314Z,9.90
2019-05-19T03:00:15.121Z,9.90
2019-05-19T03:02:43.906Z,9.80
2019-05-19T03:05:13.261Z,9.80
2019-05-19T03:07:42.062Z,9.80
2019-05-19T03:10:11.011Z,9.80
2019-05-19T03:12:39.754Z,9.80
2019-05-19T03:15:08.503Z,9.80
2019-05-19T03:17:38.762Z,9.80
2019-05-19T03:20:08.965Z,9.70
2019-05-19T03:22:39.369Z,9.80
2019-05-19T03:25:08.258Z,9.80
2019-05-19T03:27:37.095Z,9.80
2019-05-19T03:30:15.133Z,9.90
2019-05-19T03:32:45.516Z,9.90
2019-05-19T03:35:14.256Z,9.90
2019-05-19T03:37:43.332Z,9.90
2019-05-19T03:40:20.926Z,9.90
2019-05-19T03:42:50.616Z,9.90
2019-05-19T03:45:19.530Z,10.00
2019-05-19T03:47:48.273Z,10.00
2019-05-19T03:50:17.074Z,10.00
2019-05-19T03:52:45.823Z,10.00
2019-05-19T03:55:14.659Z,9.90
2019-05-19T03:57:43.498Z,10.00
2019-05-19T04:00:12.586Z,9.90
2019-05-19T04:02:41.338Z,9.90
2019-05-19T04:05:11.467Z,9.90
2019-05-19T04:07:41.205Z,9.90
2019-05-19T04:10:10.141Z,9.90
2019-05-19T04:12:38.920Z,9.90
2019-05-19T04:15:11.053Z,9.90
2019-05-19T04:17:39.791Z,10.00
2019-05-19T04:20:09.555Z,10.00
2019-05-19T04:22:38.624Z,10.00
2019-05-19T04:25:07.368Z,10.00
2019-05-19T04:27:36.154Z,10.00
2019-05-19T04:30:06.614Z,10.00
2019-05-19T04:32:35.346Z,10.00
2019-05-19T04:35:05.605Z,10.00
2019-05-19T04:37:34.379Z,10.00
2019-05-19T04:40:03.902Z,10.10
2019-05-19T04:42:32.691Z,10.10
2019-05-19T04:45:01.751Z,10.10
2019-05-19T04:47:30.500Z,10.10
2019-05-19T04:49:59.379Z,10.20
2019-05-19T04:52:28.411Z,10.20
2019-05-19T04:54:57.156Z,10.20
2019-05-19T04:57:25.945Z,10.20
2019-05-19T04:59:54.894Z,10.20
2019-05-19T05:02:23.603Z,10.20
2019-05-19T05:04:52.399Z,10.20
2019-05-19T05:07:21.189Z,10.20
2019-05-19T05:09:51.323Z,10.20
2019-05-19T05:12:20.182Z,10.30
2019-05-19T05:14:49.259Z,10.30
2019-05-19T05:17:18.005Z,10.30
2019-05-19T05:19:47.275Z,10.40
2019-05-19T05:22:22.065Z,10.40
2019-05-19T05:24:46.860Z,10.40
2019-05-19T05:27:15.649Z,10.50
2019-05-19T05:29:44.401Z,10.60
2019-05-19T05:32:13.158Z,10.60
2019-05-19T05:34:42.026Z,10.70
2019-05-19T05:37:13.017Z,10.70
2019-05-19T05:39:41.861Z,10.70
2019-05-19T05:42:10.639Z,10.80
2019-05-19T05:44:39.383Z,10.90
2019-05-19T05:47:08.135Z,10.90
2019-05-19T05:49:38.454Z,11.00
2019-05-19T05:52:07.206Z,11.00
2019-05-19T05:54:36.403Z,11.00
2019-05-19T05:57:05.998Z,11.10
2019-05-19T05:59:35.039Z,11.10
2019-05-19T06:02:04.143Z,11.20
2019-05-19T06:04:32.931Z,11.20
2019-05-19T06:07:02.779Z,11.30
2019-05-19T06:09:31.534Z,11.40
2019-05-19T06:12:00.327Z,11.50
2019-05-19T06:14:29.463Z,11.60
2019-05-19T06:16:58.577Z,11.70
2019-05-19T06:19:27.376Z,11.80
2019-05-19T06:21:56.127Z,11.80
2019-05-19T06:24:25.188Z,11.90
2019-05-19T06:26:54.058Z,12.00
2019-05-19T06:29:23.179Z,12.10
2019-05-19T06:31:52.593Z,12.10
2019-05-19T06:34:21.386Z,12.10
2019-05-19T06:36:50.210Z,12.10
2019-05-19T06:39:19.031Z,12.20
2019-05-19T06:41:47.821Z,12.30
2019-05-19T06:44:16.652Z,12.40
2019-05-19T06:46:45.402Z,12.50
2019-05-19T06:49:14.202Z,12.60
2019-05-19T06:51:43.126Z,12.70
2019-05-19T06:54:11.927Z,12.70
2019-05-19T06:56:40.850Z,12.60
2019-05-19T06:59:09.730Z,12.70
2019-05-19T07:01:41.706Z,12.70
2019-05-19T07:04:10.707Z,12.80
2019-05-19T07:06:39.553Z,12.70
2019-05-19T07:09:08.770Z,12.70
2019-05-19T07:11:37.615Z,12.70
2019-05-19T07:14:06.386Z,12.80
2019-05-19T07:16:35.182Z,12.80
2019-05-19T07:19:04.019Z,12.80
2019-05-19T07:21:33.097Z,12.90
2019-05-19T07:24:01.886Z,12.90
2019-05-19T07:26:30.639Z,13.00
2019-05-19T07:28:59.731Z,13.10
2019-05-19T07:31:28.612Z,13.10
2019-05-19T07:33:57.471Z,13.20
2019-05-19T07:36:26.224Z,13.30
2019-05-19T07:38:55.011Z,13.40
2019-05-19T07:41:23.759Z,13.60
2019-05-19T07:43:52.871Z,13.60
2019-05-19T07:46:21.955Z,13.60
2019-05-19T07:48:51.014Z,13.60
2019-05-19T07:51:19.774Z,13.70
2019-05-19T07:53:48.573Z,13.70
2019-05-19T07:56:17.615Z,13.80
2019-05-19T07:58:47.894Z,13.90
2019-05-19T08:01:17.926Z,14.00
2019-05-19T08:03:46.679Z,14.10
2019-05-19T08:06:15.499Z,14.10
2019-05-19T08:08:44.382Z,14.20
2019-05-19T08:11:13.459Z,14.40
2019-05-19T08:13:42.216Z,14.60
2019-05-19T08:16:11.007Z,14.60
2019-05-19T08:18:39.823Z,14.70
2019-05-19T08:21:08.576Z,14.80
2019-05-19T08:23:37.659Z,14.70
2019-05-19T08:26:06.428Z,14.70
2019-05-19T08:28:35.242Z,14.60
2019-05-19T08:31:04.558Z,14.70
2019-05-19T08:33:33.339Z,14.60
2019-05-19T08:36:02.071Z,14.50
2019-05-19T08:38:30.865Z,14.40
2019-05-19T08:40:59.986Z,14.40
2019-05-19T08:43:28.727Z,14.40
2019-05-19T08:45:57.886Z,14.50
2019-05-19T08:48:26.702Z,14.60
2019-05-19T08:50:55.783Z,14.80
2019-05-19T08:53:24.576Z,14.90
2019-05-19T08:55:53.362Z,15.00
2019-05-19T08:58:22.710Z,15.10
2019-05-19T09:00:51.992Z,15.10
2019-05-19T09:03:20.743Z,15.10
2019-05-19T09:05:49.842Z,15.00
2019-05-19T09:08:20.111Z,15.00
2019-05-19T09:10:49.174Z,15.00
2019-05-19T09:13:17.979Z,15.00
2019-05-19T09:15:47.123Z,15.00
2019-05-19T09:18:15.878Z,15.10
2019-05-19T09:20:44.692Z,15.20
2019-05-19T09:23:13.767Z,15.30
2019-05-19T09:25:42.842Z,15.40
2019-05-19T09:28:11.871Z,15.40
2019-05-19T09:30:40.727Z,15.40
2019-05-19T09:33:09.474Z,15.50
2019-05-19T09:35:38.225Z,15.60
2019-05-19T09:38:07.015Z,15.70
2019-05-19T09:40:35.767Z,15.80
2019-05-19T09:43:04.621Z,15.80
2019-05-19T09:45:33.605Z,15.80
2019-05-19T09:48:02.403Z,15.90
2019-05-19T09:50:31.502Z,16.00
2019-05-19T09:53:00.383Z,16.10
2019-05-19T09:55:29.134Z,16.10
2019-05-19T09:57:57.935Z,16.20
2019-05-19T10:00:26.750Z,16.20
2019-05-19T10:02:57.258Z,16.30
2019-05-19T10:05:26.050Z,16.30
2019-05-19T10:07:55.190Z,16.30
2019-05-19T10:11:01.346Z,16.40
2019-05-19T10:13:30.098Z,16.40
2019-05-19T10:15:58.851Z,16.40
2019-05-19T10:18:28.057Z,16.40
2019-05-19T10:20:56.778Z,16.40
2019-05-19T10:23:25.527Z,16.50
2019-05-19T10:25:54.321Z,16.60
2019-05-19T10:28:23.066Z,16.60
2019-05-19T10:30:52.099Z,16.60
2019-05-19T10:33:20.895Z,16.70
2019-05-19T10:35:51.174Z,16.70
2019-05-19T10:38:19.931Z,16.70
2019-05-19T10:40:48.790Z,16.70
2019-05-19T10:43:17.543Z,16.70
2019-05-19T10:45:47.930Z,16.70
2019-05-19T10:48:17.951Z,16.80
2019-05-19T10:50:46.702Z,16.90
2019-05-19T10:53:15.454Z,16.90
2019-05-19T10:55:44.247Z,17.00
2019-05-19T10:58:12.998Z,17.20
2019-05-19T11:00:41.746Z,17.30
2019-05-19T11:03:10.542Z,17.40
2019-05-19T11:05:39.396Z,17.60
2019-05-19T11:08:08.644Z,17.70
2019-05-19T11:10:37.443Z,17.80
2019-05-19T11:13:06.262Z,17.80
2019-05-19T11:15:35.006Z,17.90
2019-05-19T11:18:06.452Z,17.90
2019-05-19T11:20:34.202Z,17.80
2019-05-19T11:23:02.987Z,17.80
2019-05-19T11:25:34.360Z,17.80
2019-05-19T11:28:02.479Z,17.90
2019-05-19T11:30:31.508Z,18.00
2019-05-19T11:33:00.394Z,18.20
2019-05-19T11:35:29.158Z,18.20
2019-05-19T11:37:57.894Z,18.20
2019-05-19T11:40:27.087Z,18.30
2019-05-19T11:42:55.847Z,18.40
2019-05-19T11:45:24.871Z,18.50
2019-05-19T11:47:53.663Z,18.70
2019-05-19T11:50:22.415Z,18.80
2019-05-19T11:52:51.171Z,19.00
2019-05-19T11:55:19.965Z,19.20
2019-05-19T11:57:48.811Z,19.40
2019-05-19T12:00:18.111Z,19.50
2019-05-19T12:02:48.918Z,19.50
2019-05-19T12:05:19.627Z,19.60
2019-05-19T12:07:49.880Z,19.70
2019-05-19T12:10:19.647Z,19.80
2019-05-19T12:12:49.855Z,20.10
2019-05-19T12:15:19.060Z,20.30
2019-05-19T12:17:48.126Z,20.50
2019-05-19T12:20:16.964Z,20.70
2019-05-19T12:22:46.059Z,20.90
2019-05-19T12:25:15.164Z,21.10
2019-05-19T12:27:44.255Z,21.10
2019-05-19T12:30:21.166Z,21.20
2019-05-19T12:32:49.908Z,21.30
2019-05-19T12:35:18.654Z,21.40
2019-05-19T12:37:47.446Z,21.50
2019-05-19T12:40:17.185Z,21.60
2019-05-19T12:42:45.931Z,21.80
2019-05-19T12:45:15.287Z,22.00
2019-05-19T12:47:44.030Z,21.90
2019-05-19T12:50:13.998Z,21.40
2019-05-19T12:52:42.793Z,20.90
2019-05-19T12:55:11.535Z,20.60
2019-05-19T12:57:40.276Z,20.80
2019-05-19T13:00:10.183Z,21.20
2019-05-19T13:02:38.930Z,21.50
2019-05-19T13:05:07.972Z,21.40
2019-05-19T13:07:37.064Z,21.00
2019-05-19T13:10:07.907Z,20.70
2019-05-19T13:12:36.947Z,20.40
2019-05-19T13:15:09.144Z,20.10
2019-05-19T13:17:37.899Z,20.00
2019-05-19T13:20:06.750Z,19.90
2019-05-19T13:22:35.602Z,19.80
2019-05-19T13:25:05.854Z,19.80
2019-05-19T13:27:36.282Z,19.90
2019-05-19T13:30:07.166Z,19.80
2019-05-19T13:32:36.042Z,19.80
2019-05-19T13:35:06.716Z,19.80
2019-05-19T13:37:35.498Z,19.80
2019-05-19T13:40:05.642Z,19.80
2019-05-19T13:42:34.394Z,19.90
2019-05-19T13:45:03.251Z,20.00
2019-05-19T13:47:32.001Z,20.00
2019-05-19T13:50:00.806Z,20.10
2019-05-19T13:52:29.598Z,20.10
2019-05-19T13:54:59.806Z,20.20
2019-05-19T13:57:28.555Z,20.20
2019-05-19T13:59:57.620Z,20.20
2019-05-19T14:02:26.684Z,20.30
2019-05-19T14:04:55.431Z,20.40
2019-05-19T14:07:24.290Z,20.40
2019-05-19T14:09:54.182Z,20.50
2019-05-19T14:12:23.873Z,20.70
2019-05-19T14:14:52.678Z,20.90
2019-05-19T14:17:21.699Z,21.20
2019-05-19T14:19:51.769Z,21.60
2019-05-19T14:22:20.628Z,22.00
2019-05-19T14:24:49.799Z,22.40
2019-05-19T14:27:29.153Z,22.70
2019-05-19T14:29:48.976Z,22.90
2019-05-19T14:32:17.722Z,23.10
2019-05-19T14:34:46.787Z,23.20
2019-05-19T14:37:15.962Z,23.30
2019-05-19T14:39:47.646Z,23.40
2019-05-19T14:42:18.022Z,23.40
2019-05-19T14:44:46.829Z,23.10
2019-05-19T14:47:15.638Z,22.70
2019-05-19T14:49:45.651Z,22.30
2019-05-19T14:52:14.483Z,22.00
2019-05-19T14:54:43.575Z,21.90
2019-05-19T14:57:12.647Z,22.00
2019-05-19T14:59:41.507Z,22.20
2019-05-19T15:02:10.251Z,22.50
2019-05-19T15:04:39.311Z,22.70
2019-05-19T15:07:09.356Z,22.90
2019-05-19T15:09:38.100Z,22.90
2019-05-19T15:12:06.842Z,22.90
2019-05-19T15:14:35.630Z,23.00
2019-05-19T15:17:04.419Z,23.10
2019-05-19T15:19:33.442Z,23.10
2019-05-19T15:22:02.580Z,23.20
2019-05-19T15:24:31.642Z,23.30
2019-05-19T15:27:00.709Z,23.40
2019-05-19T15:29:29.911Z,23.50
2019-05-19T15:31:58.654Z,23.60
2019-05-19T15:34:27.469Z,23.70
2019-05-19T15:36:56.254Z,23.70
2019-05-19T15:39:25.002Z,23.70
2019-05-19T15:41:53.755Z,23.70
2019-05-19T15:44:22.706Z,23.70
2019-05-19T15:46:51.538Z,23.60
2019-05-19T15:49:20.279Z,23.50
2019-05-19T15:52:00.536Z,23.10
2019-05-19T15:54:19.486Z,22.80
2019-05-19T15:56:48.234Z,22.60
2019-05-19T15:59:17.024Z,22.40
2019-05-19T16:01:45.774Z,22.30
2019-05-19T16:04:14.521Z,22.30
2019-05-19T16:06:44.608Z,22.40
2019-05-19T16:09:14.195Z,22.30
2019-05-19T16:11:42.938Z,22.20
2019-05-19T16:14:11.795Z,22.00
2019-05-19T16:16:40.542Z,21.80
2019-05-19T16:19:09.354Z,21.70
2019-05-19T16:21:39.119Z,21.60
2019-05-19T16:24:07.863Z,21.50
2019-05-19T16:26:36.610Z,21.60
2019-05-19T16:29:05.396Z,21.70
2019-05-19T16:31:34.142Z,21.70
2019-05-19T16:34:03.353Z,21.70
2019-05-19T16:36:32.142Z,21.60
2019-05-19T16:39:00.982Z,21.70
2019-05-19T16:41:31.446Z,21.80
2019-05-19T16:44:00.219Z,21.90
2019-05-19T16:46:28.964Z,22.00
2019-05-19T16:48:57.706Z,22.10
2019-05-19T16:51:26.694Z,22.30
2019-05-19T16:53:58.375Z,22.30
2019-05-19T16:56:27.118Z,22.40
2019-05-19T16:58:55.907Z,22.40
2019-05-19T17:01:24.730Z,22.40
2019-05-19T17:03:54.490Z,22.40
2019-05-19T17:06:24.382Z,22.30
2019-05-19T17:08:53.254Z,22.20
2019-05-19T17:11:21.966Z,22.10
2019-05-19T17:13:50.853Z,22.10
2019-05-19T17:16:19.999Z,22.00
2019-05-19T17:18:48.760Z,22.00
2019-05-19T17:21:17.908Z,22.00
2019-05-19T17:23:46.655Z,21.90
2019-05-19T17:26:15.394Z,21.90
2019-05-19T17:28:44.187Z,21.90
2019-05-19T17:31:13.219Z,21.90
2019-05-19T17:33:42.239Z,21.90
2019-05-19T17:36:11.094Z,21.80
2019-05-19T17:38:39.843Z,21.90
2019-05-19T17:41:08.595Z,21.80
2019-05-19T17:43:37.475Z,21.80
2019-05-19T17:46:06.539Z,21.70
2019-05-19T17:48:35.351Z,21.60
2019-05-19T17:51:04.282Z,21.50
2019-05-19T17:53:33.191Z,21.50
2019-05-19T17:56:03.711Z,21.40
2019-05-19T17:58:33.016Z,21.40
2019-05-19T18:01:01.855Z,21.40
2019-05-19T18:03:31.102Z,21.30
2019-05-19T18:06:00.171Z,21.20
2019-05-19T18:08:28.936Z,21.00
2019-05-19T18:10:57.666Z,20.90
2019-05-19T18:13:26.524Z,20.70
2019-05-19T18:15:55.694Z,20.60
2019-05-19T18:18:24.437Z,20.40
2019-05-19T18:20:53.502Z,20.10
2019-05-19T18:23:22.270Z,19.90
2019-05-19T18:25:50.995Z,19.70
2019-05-19T18:28:19.784Z,19.50
2019-05-19T18:30:48.669Z,19.30
2019-05-19T18:33:17.352Z,19.10
2019-05-19T18:35:46.143Z,19.00
2019-05-19T18:38:16.058Z,18.90
2019-05-19T18:40:44.842Z,18.50
2019-05-19T18:43:13.691Z,17.80
2019-05-19T18:45:42.794Z,16.20
2019-05-19T18:48:11.955Z,14.40
2019-05-19T18:50:41.146Z,13.10
2019-05-19T18:53:11.640Z,12.40
2019-05-19T18:55:40.666Z,12.20
2019-05-19T18:58:09.528Z,12.20
2019-05-19T19:00:38.910Z,12.20
2019-05-19T19:03:08.130Z,12.20
2019-05-19T19:05:38.452Z,12.20
2019-05-19T19:08:07.556Z,12.20
2019-05-19T19:10:36.583Z,12.20
2019-05-19T19:13:05.385Z,12.30
2019-05-19T19:15:34.515Z,12.30
2019-05-19T19:18:03.334Z,12.40
2019-05-19T19:20:32.122Z,12.40
2019-05-19T19:23:00.958Z,12.40
2019-05-19T19:25:29.710Z,12.50
2019-05-19T19:27:59.978Z,12.50
2019-05-19T19:30:29.898Z,12.50
2019-05-19T19:32:59.143Z,12.50
2019-05-19T19:35:38.282Z,12.50
2019-05-19T19:37:58.363Z,12.50
2019-05-19T19:40:31.367Z,12.50
2019-05-19T19:43:00.526Z,12.50
2019-05-19T19:45:29.667Z,12.40
2019-05-19T19:47:58.487Z,12.40
2019-05-19T19:50:27.359Z,12.40
2019-05-19T19:52:56.206Z,12.40
2019-05-19T19:55:25.059Z,12.40
2019-05-19T19:57:53.862Z,12.40
2019-05-19T20:00:40.985Z,12.50
2019-05-19T20:03:09.979Z,12.50
2019-05-19T20:05:39.128Z,12.60
2019-05-19T20:08:07.984Z,12.60
2019-05-19T20:10:37.585Z,12.60
2019-05-19T20:13:06.867Z,12.60
2019-05-19T20:15:36.369Z,12.70
2019-05-19T20:18:05.236Z,12.70
2019-05-19T20:20:34.050Z,12.70
2019-05-19T20:23:02.882Z,12.70
2019-05-19T20:25:32.171Z,12.80
2019-05-19T20:28:01.475Z,12.80
2019-05-19T20:30:35.634Z,12.80
2019-05-19T20:33:00.824Z,12.80
2019-05-19T20:35:29.856Z,12.80
2019-05-19T20:38:00.075Z,12.80
2019-05-19T20:40:30.361Z,12.80
2019-05-19T20:43:00.455Z,12.80
2019-05-19T20:45:29.706Z,12.80
2019-05-19T20:47:58.503Z,12.80
2019-05-19T20:50:27.256Z,12.80
2019-05-19T20:52:56.075Z,12.70
2019-05-19T20:55:24.891Z,12.70
2019-05-19T20:57:54.912Z,12.70
2019-05-19T21:00:23.659Z,12.70
2019-05-19T21:02:52.550Z,12.70
2019-05-19T21:05:21.620Z,12.60
2019-05-19T21:07:50.375Z,12.60
2019-05-19T21:10:19.278Z,12.50
2019-05-19T21:12:48.350Z,12.40
2019-05-19T21:15:17.803Z,12.30
2019-05-19T21:17:46.590Z,12.20
2019-05-19T21:20:15.370Z,12.10
2019-05-19T21:22:44.107Z,12.00
2019-05-19T21:25:12.990Z,12.00
2019-05-19T21:27:41.746Z,12.00
2019-05-19T21:30:10.985Z,12.00
2019-05-19T21:32:39.846Z,12.00
2019-05-19T21:35:09.120Z,12.00
2019-05-19T21:37:38.843Z,11.90
2019-05-19T21:40:08.458Z,11.90
2019-05-19T21:42:37.501Z,11.90
2019-05-19T21:45:07.541Z,11.90
2019-05-19T21:47:36.634Z,11.80
2019-05-19T21:50:08.540Z,11.80
2019-05-19T21:52:37.287Z,11.90
2019-05-19T21:55:07.950Z,11.90
2019-05-19T21:57:37.610Z,11.90
2019-05-19T22:00:12.820Z,11.90
2019-05-19T22:02:41.570Z,11.90
2019-05-19T22:05:11.114Z,11.80
2019-05-19T22:07:56.723Z,11.80
2019-05-19T22:10:25.541Z,11.80
2019-05-19T22:12:54.297Z,11.70
2019-05-19T22:15:23.478Z,11.70
2019-05-19T22:17:52.270Z,11.70
2019-05-19T22:20:21.099Z,11.70
2019-05-19T22:22:49.850Z,11.60
2019-05-19T22:25:18.598Z,11.60
2019-05-19T22:27:47.378Z,11.60
2019-05-19T22:30:16.658Z,11.60
2019-05-19T22:32:45.414Z,11.60
2019-05-19T22:35:14.261Z,11.60
2019-05-19T22:37:43.111Z,11.70
2019-05-19T22:40:12.035Z,11.70
2019-05-19T22:42:40.798Z,11.70
2019-05-19T22:45:09.996Z,11.60
2019-05-19T22:47:38.741Z,11.60
2019-05-19T22:50:08.625Z,11.60
2019-05-19T22:52:37.414Z,11.50
2019-05-19T22:55:07.562Z,11.50
2019-05-19T22:57:37.427Z,11.50
2019-05-19T23:00:10.611Z,11.50
2019-05-19T23:02:39.362Z,11.40
2019-05-19T23:05:08.514Z,11.50
2019-05-19T23:07:37.746Z,11.40
2019-05-19T23:10:07.497Z,11.40
2019-05-19T23:12:36.558Z,11.30
2019-05-19T23:15:08.801Z,11.30
2019-05-19T23:17:37.567Z,11.30
2019-05-19T23:20:06.502Z,11.20
2019-05-19T23:22:35.298Z,11.30
2019-05-19T23:25:08.570Z,11.20
2019-05-19T23:27:37.318Z,11.10
2019-05-19T23:30:07.615Z,11.10
2019-05-19T23:32:36.359Z,11.10
2019-05-19T23:35:06.942Z,11.10
2019-05-19T23:37:35.739Z,11.00
2019-05-19T23:40:06.592Z,11.00
2019-05-19T23:42:35.530Z,11.00
2019-05-19T23:45:05.798Z,10.90
2019-05-19T23:47:34.538Z,10.90
2019-05-19T23:50:04.588Z,10.90
2019-05-19T23:52:33.703Z,11.00
2019-05-19T23:55:04.565Z,11.00
2019-05-19T23:57:34.940Z,11.00
